Time;durP1;ratioP1;P1;durP2;ratioP2;P2;SDS_P1;SDS_P2;PMS_P1;PMS_P2;Temp;Humidity;BMP_temperature;BMP_pressure;BME280_temperature;BME280_humidity;BME280_pressure;Samples;Min_cycle;Max_cycle;Signal;HPM_P1;HPM_P2
2022/11/02 00:03:52;;;;;;;24.50;17.80;;;12.30;99.90;;;;;;10389437;28;20223;-84
2022/11/02 00:09:14;;;;;;;28.87;18.77;;;12.30;99.90;;;;;;10395931;28;20241;-79
2022/11/02 00:14:35;;;;;;;34.77;19.30;;;12.30;99.90;;;;;;10396464;28;20200;-83
2022/11/02 00:19:56;;;;;;;33.07;19.20;;;12.20;99.90;;;;;;10395620;28;20285;-87
2022/11/02 00:25:19;;;;;;;25.03;17.83;;;12.20;99.90;;;;;;10395775;28;20198;-82
2022/11/02 00:30:41;;;;;;;25.37;18.30;;;12.10;99.90;;;;;;10381160;28;20233;-79
2022/11/02 00:36:02;;;;;;;25.30;17.50;;;12.10;99.90;;;;;;10343494;28;20422;-79
2022/11/02 00:41:23;;;;;;;22.53;15.80;;;12.10;99.90;;;;;;10396127;28;20227;-89
2022/11/02 00:46:45;;;;;;;24.27;16.97;;;12.10;99.90;;;;;;10448926;28;20195;-79
2022/11/02 00:52:06;;;;;;;25.57;18.10;;;12.10;99.90;;;;;;10420539;28;20205;-88
2022/11/02 00:57:27;;;;;;;28.63;17.47;;;12.00;99.90;;;;;;10415853;28;20224;-80
2022/11/02 01:02:48;;;;;;;24.23;17.73;;;12.00;99.90;;;;;;10429341;28;20225;-81
2022/11/02 01:08:10;;;;;;;24.83;18.07;;;12.00;99.90;;;;;;10388136;28;20462;-80
2022/11/02 01:13:31;;;;;;;24.20;17.23;;;12.00;99.90;;;;;;10416162;28;20201;-85
2022/11/02 01:18:54;;;;;;;25.90;18.63;;;12.00;99.90;;;;;;10402170;28;20584;-83
2022/11/02 01:24:15;;;;;;;27.93;18.13;;;11.90;99.90;;;;;;10424398;28;20504;-78
2022/11/02 01:29:36;;;;;;;23.00;15.80;;;11.90;99.90;;;;;;10408253;28;20210;-88
2022/11/02 01:34:57;;;;;;;20.07;15.03;;;11.90;99.90;;;;;;10406823;28;20194;-87
2022/11/02 01:40:18;;;;;;;17.37;13.17;;;11.80;99.90;;;;;;10420002;28;20225;-79
2022/11/02 01:45:39;;;;;;;20.70;15.97;;;11.70;99.90;;;;;;10442051;28;20197;-86
2022/11/02 01:51:07;;;;;;;24.17;16.73;;;11.50;99.90;;;;;;10456568;28;20196;-82
2022/11/02 01:56:31;;;;;;;24.13;17.43;;;11.40;99.90;;;;;;10455569;28;20199;-79
2022/11/02 02:01:53;;;;;;;25.03;17.03;;;11.40;99.90;;;;;;10409617;28;20222;-79
2022/11/02 02:07:14;;;;;;;27.53;20.10;;;11.40;99.90;;;;;;10414074;28;20186;-85
2022/11/02 02:12:38;;;;;;;22.57;16.13;;;11.30;99.90;;;;;;10400855;28;20235;-81
2022/11/02 02:18:14;;;;;;;21.17;16.33;;;11.30;99.90;;;;;;10386265;28;20199;-79
2022/11/02 02:23:58;;;;;;;22.50;15.23;;;11.30;99.90;;;;;;10418257;28;20241;-79
2022/11/02 02:29:22;;;;;;;18.20;13.97;;;11.30;99.90;;;;;;10418252;28;20206;-89
2022/11/02 02:35:21;;;;;;;24.00;17.50;;;11.20;99.90;;;;;;10368055;28;20195;-79
2022/11/02 02:40:50;;;;;;;25.23;19.13;;;11.20;99.90;;;;;;10388026;28;20225;-81
2022/11/02 02:46:18;;;;;;;23.13;18.60;;;11.20;99.90;;;;;;10439723;28;20214;-82
2022/11/02 02:51:40;;;;;;;24.47;18.73;;;11.20;99.90;;;;;;10439000;28;20204;-81
2022/11/02 02:57:08;;;;;;;23.87;18.17;;;11.20;99.90;;;;;;10439066;28;20197;-84
2022/11/02 03:02:32;;;;;;;24.03;18.93;;;11.20;99.90;;;;;;10416848;28;20224;-83
2022/11/02 03:07:56;;;;;;;26.27;20.53;;;11.20;99.90;;;;;;10374844;28;20199;-83
2022/11/02 03:13:30;;;;;;;20.60;17.73;;;11.20;99.90;;;;;;10377724;28;20215;-79
2022/11/02 03:19:16;;;;;;;23.63;18.97;;;11.10;99.90;;;;;;10397149;28;20239;-80
2022/11/02 03:25:14;;;;;;;24.03;18.87;;;11.20;99.90;;;;;;10397179;28;20197;-82
2022/11/02 03:30:45;;;;;;;22.07;17.27;;;11.10;99.90;;;;;;10316621;28;20215;-88
2022/11/02 03:36:14;;;;;;;23.50;17.43;;;11.10;99.90;;;;;;10273526;29;20470;-81
2022/11/02 03:41:40;;;;;;;21.17;16.67;;;11.10;99.90;;;;;;10292540;28;20596;-79
2022/11/02 03:47:04;;;;;;;21.53;17.07;;;11.10;99.90;;;;;;10316480;28;20209;-79
2022/11/02 03:52:30;;;;;;;18.70;16.53;;;11.10;99.90;;;;;;10310341;28;20235;-79
2022/11/02 03:57:52;;;;;;;24.57;17.10;;;11.10;99.90;;;;;;10312860;28;20523;-79
2022/11/02 04:03:20;;;;;;;25.60;19.03;;;11.10;99.90;;;;;;10323032;28;20206;-79
2022/11/02 04:08:45;;;;;;;23.57;19.27;;;11.10;99.90;;;;;;10448727;28;20248;-78
2022/11/02 04:19:50;;;;;;;21.83;17.23;;;11.10;99.90;;;;;;10408069;28;20278;-78
2022/11/02 04:25:17;;;;;;;21.27;15.87;;;11.00;99.90;;;;;;10423527;28;20248;-78
2022/11/02 04:31:00;;;;;;;20.27;16.90;;;11.00;99.90;;;;;;10414914;28;20537;-79
2022/11/02 04:36:31;;;;;;;21.03;16.03;;;11.00;99.90;;;;;;10369091;28;20198;-78
2022/11/02 04:41:52;;;;;;;19.70;15.27;;;11.00;99.90;;;;;;10380841;28;20224;-79
2022/11/02 04:47:18;;;;;;;19.23;15.23;;;10.90;99.90;;;;;;10409570;28;20208;-82
2022/11/02 04:52:40;;;;;;;23.17;17.03;;;10.90;99.90;;;;;;10394107;28;20201;-78
2022/11/02 04:58:01;;;;;;;16.97;14.77;;;10.90;99.90;;;;;;10394338;28;20382;-79
2022/11/02 05:03:23;;;;;;;19.70;15.10;;;10.90;99.90;;;;;;10407531;28;20519;-81
2022/11/02 05:08:45;;;;;;;21.40;17.30;;;10.90;99.90;;;;;;10380075;28;20227;-80
2022/11/02 05:14:07;;;;;;;20.87;15.80;;;10.80;99.90;;;;;;10394960;28;20287;-78
2022/11/02 05:19:29;;;;;;;20.30;14.73;;;10.80;99.90;;;;;;10393811;28;20221;-80
2022/11/02 05:24:53;;;;;;;22.77;16.13;;;10.80;99.90;;;;;;10394167;28;20280;-78
2022/11/02 05:30:15;;;;;;;22.03;15.30;;;10.80;99.90;;;;;;10411603;28;20219;-88
2022/11/02 05:35:37;;;;;;;23.40;17.43;;;10.70;99.90;;;;;;10401690;28;20190;-89
2022/11/02 05:40:59;;;;;;;22.47;17.27;;;10.60;99.90;;;;;;10425955;28;20483;-79
2022/11/02 05:46:23;;;;;;;22.53;16.10;;;10.60;99.90;;;;;;10416889;28;20197;-79
2022/11/02 05:51:45;;;;;;;23.17;15.40;;;10.60;99.90;;;;;;10429452;28;20266;-84
2022/11/02 05:57:06;;;;;;;22.10;14.87;;;10.60;99.90;;;;;;10443081;28;20463;-79
2022/11/02 06:02:29;;;;;;;25.37;17.30;;;10.60;99.90;;;;;;10415791;28;20301;-80
2022/11/02 06:07:51;;;;;;;28.50;19.70;;;10.60;99.90;;;;;;10406252;28;20203;-83
2022/11/02 06:13:12;;;;;;;28.33;18.20;;;10.50;99.90;;;;;;10399979;28;20537;-86
2022/11/02 06:18:33;;;;;;;19.30;13.67;;;10.50;99.90;;;;;;10399926;28;20206;-82
2022/11/02 06:23:55;;;;;;;22.87;16.90;;;10.50;99.90;;;;;;10399708;28;20203;-85
2022/11/02 06:29:16;;;;;;;41.30;26.10;;;10.50;99.90;;;;;;10385578;28;20203;-81
2022/11/02 06:34:37;;;;;;;25.80;17.37;;;10.50;99.90;;;;;;10398771;28;20234;-80
2022/11/02 06:39:58;;;;;;;19.37;14.40;;;10.50;99.90;;;;;;10426700;28;20230;-87
2022/11/02 06:45:19;;;;;;;28.10;19.63;;;10.50;99.90;;;;;;10426216;28;20206;-79
2022/11/02 06:50:40;;;;;;;32.40;21.17;;;10.50;99.90;;;;;;10425772;28;20212;-79
2022/11/02 06:56:02;;;;;;;35.57;21.73;;;10.60;99.90;;;;;;10440262;28;20504;-85
2022/11/02 07:01:24;;;;;;;24.43;17.00;;;10.60;99.90;;;;;;10424275;28;20234;-81
2022/11/02 07:06:45;;;;;;;24.27;15.90;;;10.60;99.90;;;;;;10402034;28;20191;-79
2022/11/02 07:12:06;;;;;;;21.17;14.77;;;10.60;99.90;;;;;;10397783;28;20281;-82
2022/11/02 07:17:27;;;;;;;19.77;14.00;;;10.50;99.90;;;;;;10397367;28;20346;-79
2022/11/02 07:22:56;;;;;;;21.73;14.90;;;10.50;99.90;;;;;;10397779;28;20219;-79
2022/11/02 07:28:19;;;;;;;23.57;16.70;;;10.60;99.90;;;;;;10397277;28;20195;-83
2022/11/02 07:33:40;;;;;;;24.57;16.37;;;10.60;99.90;;;;;;10366989;28;20282;-79
2022/11/02 07:39:02;;;;;;;21.53;15.00;;;10.60;99.90;;;;;;10373787;28;20187;-80
2022/11/02 07:44:23;;;;;;;21.77;15.07;;;10.60;99.90;;;;;;10356211;28;20224;-86
2022/11/02 07:49:48;;;;;;;18.07;14.33;;;10.50;99.90;;;;;;10367108;28;20186;-80
2022/11/02 07:55:09;;;;;;;21.33;14.47;;;10.60;99.90;;;;;;10356309;28;20212;-79
2022/11/02 08:00:33;;;;;;;33.00;21.00;;;10.60;99.90;;;;;;10362533;28;20228;-88
2022/11/02 08:05:54;;;;;;;32.20;19.73;;;10.60;99.90;;;;;;10437800;28;20273;-89
2022/11/02 08:11:15;;;;;;;42.17;27.40;;;10.60;99.90;;;;;;10413314;28;20299;-78
2022/11/02 08:16:37;;;;;;;31.63;21.03;;;10.70;99.90;;;;;;10381287;28;20280;-79
2022/11/02 08:21:58;;;;;;;45.77;28.77;;;10.70;99.90;;;;;;10396329;28;20219;-81
2022/11/02 08:27:19;;;;;;;45.00;30.13;;;10.80;99.90;;;;;;10388618;28;20255;-82
2022/11/02 08:32:40;;;;;;;52.53;29.67;;;10.80;99.90;;;;;;10405329;28;20212;-80
2022/11/02 08:38:02;;;;;;;34.23;23.40;;;10.90;99.90;;;;;;10423909;28;20195;-84
2022/11/02 08:43:24;;;;;;;30.77;19.50;;;10.90;99.90;;;;;;10363486;28;20230;-83
2022/11/02 08:48:45;;;;;;;30.87;19.03;;;10.90;99.90;;;;;;10402628;28;20207;-82
2022/11/02 08:54:07;;;;;;;40.30;26.80;;;11.10;99.90;;;;;;10394806;28;20235;-88
2022/11/02 08:59:28;;;;;;;34.00;22.23;;;11.20;99.90;;;;;;10394016;28;20211;-85
2022/11/02 09:04:49;;;;;;;29.13;17.60;;;11.20;99.90;;;;;;10394701;28;20291;-83
2022/11/02 09:10:10;;;;;;;24.70;15.97;;;11.30;99.90;;;;;;10400528;28;20258;-81
2022/11/02 09:15:34;;;;;;;26.93;16.07;;;11.30;99.90;;;;;;10365814;28;20216;-81
2022/11/02 09:20:55;;;;;;;34.00;19.40;;;11.30;99.90;;;;;;10375957;28;20406;-88
2022/11/02 09:26:16;;;;;;;26.97;18.40;;;11.30;99.90;;;;;;10393756;28;20281;-84
2022/11/02 09:31:37;;;;;;;37.07;21.43;;;11.30;99.90;;;;;;10396938;28;20250;-79
2022/11/02 09:36:59;;;;;;;29.30;17.90;;;11.30;99.90;;;;;;10383503;28;20220;-84
2022/11/02 09:42:52;;;;;;;19.30;13.43;;;11.40;99.90;;;;;;10389052;28;20244;-82
2022/11/02 09:48:19;;;;;;;27.33;15.53;;;11.40;99.90;;;;;;10317452;28;20599;-80
2022/11/02 09:53:48;;;;;;;22.80;14.17;;;11.50;99.90;;;;;;10319627;28;20204;-83
2022/11/02 09:59:14;;;;;;;22.03;15.57;;;11.40;99.90;;;;;;10339385;28;20210;-84
2022/11/02 10:04:46;;;;;;;21.23;14.13;;;11.40;99.90;;;;;;10335537;28;20506;-84
2022/11/02 10:10:16;;;;;;;34.67;17.17;;;11.50;99.90;;;;;;10321734;28;20558;-85
2022/11/02 10:16:04;;;;;;;32.47;18.37;;;11.50;99.90;;;;;;10298322;28;20250;-81
2022/11/02 10:21:35;;;;;;;27.37;17.70;;;11.50;99.90;;;;;;10337388;28;20287;-80
2022/11/02 10:27:00;;;;;;;49.27;25.67;;;11.70;99.90;;;;;;10368684;28;20190;-78
2022/11/02 10:32:21;;;;;;;36.63;18.27;;;11.60;99.90;;;;;;10398414;28;20277;-80
2022/11/02 10:38:03;;;;;;;33.00;16.63;;;11.50;99.90;;;;;;10382002;28;20270;-81
2022/11/02 10:43:47;;;;;;;27.73;14.30;;;11.60;99.90;;;;;;10356625;28;20549;-80
2022/11/02 10:49:36;;;;;;;24.47;14.80;;;11.70;99.90;;;;;;10356005;28;20428;-84
2022/11/02 10:54:58;;;;;;;23.00;14.83;;;11.80;99.90;;;;;;10342424;28;20223;-81
2022/11/02 11:00:27;;;;;;;30.43;13.80;;;11.80;99.90;;;;;;10371478;28;20239;-81
2022/11/02 11:06:03;;;;;;;23.33;11.47;;;11.90;99.90;;;;;;10380427;28;20214;-79
2022/11/02 11:11:28;;;;;;;17.43;11.93;;;12.00;99.90;;;;;;10392254;28;20241;-81
2022/11/02 11:16:53;;;;;;;17.43;10.80;;;12.40;99.90;;;;;;10378389;28;20203;-79
2022/11/02 11:22:23;;;;;;;19.67;11.53;;;12.50;99.90;;;;;;10379428;28;20235;-79
2022/11/02 11:27:46;;;;;;;18.20;11.63;;;12.50;99.90;;;;;;10368864;28;20475;-81
2022/11/02 11:33:15;;;;;;;26.17;11.53;;;12.40;99.90;;;;;;10407693;28;20506;-79
2022/11/02 11:38:46;;;;;;;15.03;9.90;;;12.80;99.90;;;;;;10396464;28;20432;-80
2022/11/02 11:44:13;;;;;;;14.53;9.93;;;13.30;99.90;;;;;;10422841;28;20220;-80
2022/11/02 11:49:38;;;;;;;39.30;21.67;;;13.30;99.90;;;;;;10363877;28;20217;-79
2022/11/02 11:55:27;;;;;;;28.47;18.47;;;13.10;99.90;;;;;;10390405;28;20576;-79
2022/11/02 12:01:10;;;;;;;22.50;12.83;;;13.10;99.90;;;;;;10403600;28;20352;-79
2022/11/02 12:06:37;;;;;;;18.53;11.30;;;13.10;99.90;;;;;;10349838;28;20202;-79
2022/11/02 12:12:23;;;;;;;14.33;9.37;;;13.10;99.90;;;;;;10365684;28;20248;-80
2022/11/02 12:18:05;;;;;;;12.40;8.17;;;13.40;99.90;;;;;;10391102;28;20204;-82
2022/11/02 12:23:44;;;;;;;12.75;7.05;;;14.70;99.90;;;;;;10407081;28;20277;-80
2022/11/02 12:29:37;;;;;;;8.93;6.45;;;16.20;99.90;;;;;;10394628;28;20265;-81
2022/11/02 12:35:21;;;;;;;8.18;5.72;;;17.20;99.90;;;;;;10404135;28;20275;-81
2022/11/02 12:41:08;;;;;;;10.57;6.68;;;18.20;91.90;;;;;;10395356;28;20224;-80
2022/11/02 12:46:53;;;;;;;6.30;5.22;;;18.20;88.70;;;;;;10399834;28;20209;-80
2022/11/02 12:52:39;;;;;;;7.75;5.88;;;;;;;;;;10394877;28;20189;-80
2022/11/02 12:58:16;;;;;;;7.90;4.70;;;19.20;96.80;;;;;;10376405;28;20222;-79
2022/11/02 13:04:02;;;;;;;8.82;5.50;;;19.10;74.40;;;;;;10386260;28;20236;-79
2022/11/02 13:09:35;;;;;;;8.02;4.60;;;18.40;73.70;;;;;;10410703;28;20260;-79
2022/11/02 13:14:58;;;;;;;16.33;6.50;;;17.40;92.70;;;;;;10396378;28;20210;-79
2022/11/02 13:20:27;;;;;;;8.23;5.05;;;16.20;94.50;;;;;;10424851;28;20211;-77
2022/11/02 13:25:54;;;;;;;14.82;8.15;;;15.50;97.50;;;;;;10411282;28;20202;-78
2022/11/02 13:31:27;;;;;;;20.25;10.40;;;15.10;99.90;;;;;;10367576;28;20257;-80
2022/11/02 13:36:48;;;;;;;12.93;8.73;;;14.70;99.90;;;;;;10357904;28;20211;-80
2022/11/02 13:42:29;;;;;;;13.67;6.50;;;14.40;99.90;;;;;;10424174;28;20554;-80
2022/11/02 13:48:05;;;;;;;11.40;6.10;;;14.20;99.90;;;;;;10422511;28;20282;-82
2022/11/02 13:53:33;;;;;;;20.47;8.77;;;14.00;99.90;;;;;;10392072;28;20227;-79
2022/11/02 13:58:59;;;;;;;10.50;5.93;;;13.70;99.90;;;;;;10374336;28;20255;-79
2022/11/02 14:04:21;;;;;;;9.80;5.67;;;13.50;99.90;;;;;;10368793;28;20244;-80
2022/11/02 14:09:44;;;;;;;12.47;6.30;;;13.30;99.90;;;;;;10374713;28;20313;-79
2022/11/02 14:15:14;;;;;;;12.97;5.80;;;13.20;99.90;;;;;;10397226;28;20213;-80
2022/11/02 14:20:38;;;;;;;10.47;6.67;;;13.10;99.90;;;;;;10380035;28;20269;-78
2022/11/02 14:26:00;;;;;;;10.00;6.20;;;13.10;99.90;;;;;;10388617;28;20200;-78
2022/11/02 14:31:38;;;;;;;9.77;5.33;;;12.90;99.90;;;;;;10416504;28;20190;-78
2022/11/02 14:37:28;;;;;;;14.07;5.43;;;12.80;99.90;;;;;;10393685;28;20207;-81
2022/11/02 14:42:53;;;;;;;11.37;4.83;;;12.70;99.90;;;;;;10440318;28;20253;-83
2022/11/02 14:48:17;;;;;;;15.30;4.70;;;12.70;99.90;;;;;;10453240;28;20191;-80
2022/11/02 14:53:38;;;;;;;65.60;30.27;;;12.70;99.90;;;;;;10368623;28;20204;-79
2022/11/02 14:58:59;;;;;;;15.07;9.43;;;12.60;99.90;;;;;;10345740;28;20302;-82
2022/11/02 15:04:33;;;;;;;16.73;8.63;;;12.40;99.90;;;;;;10379950;28;20238;-81
2022/11/02 15:10:14;;;;;;;19.00;10.07;;;12.30;99.90;;;;;;10393312;28;20244;-81
2022/11/02 15:15:35;;;;;;;15.83;8.70;;;12.20;99.90;;;;;;10356978;28;20279;-89
2022/11/02 15:21:09;;;;;;;20.23;8.47;;;12.20;99.90;;;;;;10397370;28;20294;-80
2022/11/02 15:26:32;;;;;;;17.27;7.27;;;12.10;99.90;;;;;;10378841;28;20203;-82
2022/11/02 15:31:58;;;;;;;19.03;7.23;;;12.10;99.90;;;;;;10392453;28;20213;-80
2022/11/02 15:37:29;;;;;;;16.63;6.70;;;12.10;99.90;;;;;;10359722;28;20497;-81
2022/11/02 15:43:25;;;;;;;11.83;5.30;;;12.00;99.90;;;;;;10392618;28;20236;-80
2022/11/02 15:49:01;;;;;;;13.53;7.13;;;12.00;99.90;;;;;;10390408;28;20202;-83
2022/11/02 15:54:38;;;;;;;11.93;5.77;;;11.90;99.90;;;;;;10385066;28;20210;-82
2022/11/02 16:00:20;;;;;;;17.00;7.83;;;11.80;99.90;;;;;;10376725;28;20209;-84
2022/11/02 16:05:48;;;;;;;16.70;6.97;;;11.70;99.90;;;;;;10413068;28;20212;-87
2022/11/02 16:11:17;;;;;;;12.03;6.83;;;11.60;99.90;;;;;;10423354;28;20241;-81
2022/11/02 16:16:49;;;;;;;15.63;7.97;;;11.50;99.90;;;;;;10408063;28;20206;-79
2022/11/02 16:22:11;;;;;;;27.10;14.50;;;11.40;99.90;;;;;;10353683;28;20221;-79
2022/11/02 16:27:36;;;;;;;20.33;11.03;;;11.30;99.90;;;;;;10411753;28;20485;-80
2022/11/02 16:32:59;;;;;;;18.87;9.80;;;11.20;99.90;;;;;;10341924;28;20258;-79
2022/11/02 16:38:22;;;;;;;18.83;9.67;;;11.10;99.90;;;;;;10371002;28;21741;-81
2022/11/02 16:43:45;;;;;;;18.90;10.10;;;11.00;99.90;;;;;;10449630;28;20231;-82
2022/11/02 16:49:17;;;;;;;19.90;9.10;;;10.90;99.90;;;;;;10406110;28;20195;-80
2022/11/02 16:54:40;;;;;;;20.27;9.07;;;10.90;99.90;;;;;;10340906;28;20199;-80
2022/11/02 17:00:22;;;;;;;17.73;9.70;;;10.80;99.90;;;;;;10354467;28;20204;-80
2022/11/02 17:05:47;;;;;;;21.83;11.73;;;10.80;99.90;;;;;;10364215;28;20497;-80
2022/11/02 17:11:14;;;;;;;26.63;11.90;;;10.60;99.90;;;;;;10360586;28;20236;-80
2022/11/02 17:16:54;;;;;;;30.30;14.03;;;10.50;99.90;;;;;;10376970;28;20204;-80
2022/11/02 17:22:24;;;;;;;22.43;11.57;;;10.50;99.90;;;;;;10355425;28;20263;-81
2022/11/02 17:27:46;;;;;;;22.07;11.30;;;10.40;99.90;;;;;;10376303;28;20181;-80
2022/11/02 17:33:20;;;;;;;20.70;11.03;;;10.40;99.90;;;;;;10428013;28;20241;-80
2022/11/02 17:38:41;;;;;;;23.30;9.17;;;10.40;99.90;;;;;;10391486;28;20482;-80
2022/11/02 17:44:03;;;;;;;16.40;8.17;;;10.40;99.90;;;;;;10347906;28;20303;-80
2022/11/02 17:49:24;;;;;;;16.50;7.77;;;10.40;99.90;;;;;;10347007;28;20195;-81
2022/11/02 17:54:45;;;;;;;20.70;7.57;;;10.50;99.90;;;;;;10360992;28;20256;-80
2022/11/02 18:00:07;;;;;;;20.20;8.27;;;10.50;99.90;;;;;;10359869;28;20228;-80
2022/11/02 18:05:35;;;;;;;20.80;7.47;;;10.60;99.90;;;;;;10396900;28;20234;-79
2022/11/02 18:10:56;;;;;;;18.00;7.90;;;10.50;99.90;;;;;;10418503;28;20435;-80
2022/11/02 18:16:17;;;;;;;14.37;7.03;;;10.50;99.90;;;;;;10399554;28;20200;-80
2022/11/02 18:21:39;;;;;;;21.27;9.83;;;10.50;99.90;;;;;;10413613;28;20260;-79
2022/11/02 18:27:00;;;;;;;33.57;16.77;;;10.40;99.90;;;;;;10399920;28;20191;-80
2022/11/02 18:32:22;;;;;;;30.90;12.70;;;10.40;99.90;;;;;;10372650;28;20200;-80
2022/11/02 18:37:44;;;;;;;17.20;8.17;;;10.30;99.90;;;;;;10358321;28;20216;-80
2022/11/02 18:43:05;;;;;;;17.73;9.20;;;10.30;99.90;;;;;;10390309;28;20595;-80
2022/11/02 18:48:27;;;;;;;21.37;7.83;;;10.20;99.90;;;;;;10413054;28;20244;-81
2022/11/02 18:53:53;;;;;;;18.03;6.47;;;10.20;99.90;;;;;;10398809;28;20199;-80
2022/11/02 18:59:14;;;;;;;12.37;5.77;;;10.20;99.90;;;;;;10384600;28;20203;-80
2022/11/02 19:04:35;;;;;;;12.47;5.07;;;10.10;99.90;;;;;;10398085;28;20222;-81
2022/11/02 19:09:56;;;;;;;11.03;4.70;;;10.00;99.90;;;;;;10387898;28;20249;-81
2022/11/02 19:15:21;;;;;;;7.70;3.33;;;9.90;99.90;;;;;;10343788;28;20401;-80
2022/11/02 19:20:42;;;;;;;8.93;3.57;;;10.00;99.90;;;;;;10372829;28;20204;-80
2022/11/02 19:26:03;;;;;;;7.53;3.80;;;9.90;99.90;;;;;;10361281;28;20200;-79
2022/11/02 19:31:25;;;;;;;12.17;3.17;;;9.70;99.90;;;;;;10364416;28;20196;-80
2022/11/02 19:36:46;;;;;;;7.30;2.70;;;9.80;99.90;;;;;;10349913;28;20198;-80
2022/11/02 19:42:07;;;;;;;6.90;2.97;;;9.80;99.90;;;;;;10430492;28;20245;-80
2022/11/02 19:47:29;;;;;;;6.70;3.33;;;;;;;;;;10409505;28;20203;-81
2022/11/02 19:52:50;;;;;;;9.47;3.10;;;9.50;99.90;;;;;;10451361;28;20201;-80
2022/11/02 19:58:12;;;;;;;9.50;3.37;;;9.50;99.90;;;;;;10437501;28;20191;-80
2022/11/02 20:03:33;;;;;;;11.63;2.90;;;9.40;99.90;;;;;;10410794;28;20226;-82
2022/11/02 20:08:55;;;;;;;10.07;3.70;;;9.50;99.90;;;;;;10415320;28;20231;-80
2022/11/02 20:14:17;;;;;;;5.50;3.43;;;9.50;99.90;;;;;;10372578;28;20204;-81
2022/11/02 20:19:38;;;;;;;7.27;3.13;;;9.40;99.90;;;;;;10393056;28;20203;-80
2022/11/02 20:24:59;;;;;;;8.87;2.60;;;9.40;99.90;;;;;;10395565;28;20230;-80
2022/11/02 20:30:21;;;;;;;7.87;3.13;;;9.40;99.90;;;;;;10394375;28;20206;-80
2022/11/02 20:35:44;;;;;;;9.33;2.93;;;9.30;99.90;;;;;;10381308;28;20209;-80
2022/11/02 20:41:13;;;;;;;5.93;2.53;;;9.40;99.90;;;;;;10420818;28;20514;-80
2022/11/02 20:46:36;;;;;;;8.03;2.93;;;9.40;99.90;;;;;;10356064;28;20496;-80
2022/11/02 20:51:59;;;;;;;7.10;2.20;;;9.50;99.90;;;;;;10355098;28;20192;-81
2022/11/02 20:57:21;;;;;;;4.90;2.17;;;9.40;99.90;;;;;;10354884;28;20250;-80
2022/11/02 21:02:46;;;;;;;8.17;2.63;;;9.40;99.90;;;;;;10373724;28;20253;-80
2022/11/02 21:08:07;;;;;;;7.07;3.00;;;9.30;99.90;;;;;;10388507;28;20242;-80
2022/11/02 21:19:08;;;;;;;5.73;2.57;;;9.30;99.90;;;;;;10431740;28;20392;-80
2022/11/02 21:24:29;;;;;;;5.27;2.57;;;9.30;99.90;;;;;;10442934;28;20218;-79
2022/11/02 21:29:50;;;;;;;7.97;2.77;;;9.30;99.90;;;;;;10389432;28;20198;-80
2022/11/02 21:35:12;;;;;;;5.23;2.40;;;9.30;99.90;;;;;;10401579;28;20274;-80
2022/11/02 21:40:33;;;;;;;4.23;2.23;;;9.30;99.90;;;;;;10421924;28;20197;-80
2022/11/02 21:46:01;;;;;;;6.97;2.60;;;9.20;99.90;;;;;;10419265;28;20387;-80
2022/11/02 21:51:22;;;;;;;4.33;2.20;;;9.20;99.90;;;;;;10386456;28;20205;-80
2022/11/02 21:56:45;;;;;;;6.07;2.30;;;9.10;99.90;;;;;;10414502;28;20253;-79
2022/11/02 22:02:07;;;;;;;4.70;2.13;;;9.10;99.90;;;;;;10420012;28;20229;-81
2022/11/02 22:08:36;;;;;;;9.13;2.67;;;9.10;99.90;;;;;;10404448;28;20191;-80
2022/11/02 22:19:10;;;;;;;8.13;3.67;;;9.20;99.90;;;;;;10332481;28;20219;-79
2022/11/02 22:24:32;;;;;;;9.00;3.87;;;;;;;;;;10302833;28;20463;-80
2022/11/02 22:29:53;;;;;;;7.17;3.27;;;9.30;99.90;;;;;;10348942;28;20207;-80
2022/11/02 22:35:14;;;;;;;9.00;2.53;;;9.20;99.90;;;;;;10353397;28;20279;-80
2022/11/02 22:40:35;;;;;;;6.13;2.43;;;9.20;99.90;;;;;;10376499;28;20285;-80
2022/11/02 22:46:01;;;;;;;10.47;2.33;;;9.20;99.90;;;;;;10396272;28;20252;-80
2022/11/02 22:51:25;;;;;;;6.67;2.20;;;9.20;99.90;;;;;;10395784;28;20215;-79
2022/11/02 22:56:47;;;;;;;4.97;2.20;;;9.20;99.90;;;;;;10371563;28;20267;-80
2022/11/02 23:02:08;;;;;;;5.13;1.90;;;9.10;99.90;;;;;;10353556;28;20231;-79
2022/11/02 23:07:29;;;;;;;6.27;2.03;;;9.00;99.90;;;;;;10384012;28;20254;-78
2022/11/02 23:12:50;;;;;;;6.60;2.80;;;9.00;99.90;;;;;;10411831;28;20201;-80
2022/11/02 23:18:11;;;;;;;6.50;2.83;;;9.00;99.90;;;;;;10397425;28;20204;-80
2022/11/02 23:40:33;;;;;;;4.63;2.20;;;9.00;99.90;;;;;;10417213;28;20280;-80
2022/11/02 23:45:56;;;;;;;4.97;2.10;;;8.90;99.90;;;;;;10423716;28;20228;-81
2022/11/02 23:56:58;;;;;;;3.70;2.00;;;8.80;99.90;;;;;;10356972;28;20557;-80
